sensor_id;sensor_type;location;lat;lon;timestamp;pressure;altitude;pressure_sealevel;temperature;humidity
25350;BME280;13302;48.796;11.978;2023-06-14T00:00:02;96417.69;;;16.76;26.26
25350;BME280;13302;48.796;11.978;2023-06-14T00:02:52;96418.50;;;16.70;26.17
25350;BME280;13302;48.796;11.978;2023-06-14T00:05:43;96414.13;;;16.65;25.92
25350;BME280;13302;48.796;11.978;2023-06-14T00:08:30;96422.91;;;16.60;25.93
25350;BME280;13302;48.796;11.978;2023-06-14T00:11:17;96421.31;;;16.56;26.02
25350;BME280;13302;48.796;11.978;2023-06-14T00:14:05;96412.94;;;16.56;26.00
25350;BME280;13302;48.796;11.978;2023-06-14T00:16:52;96422.50;;;16.54;26.06
25350;BME280;13302;48.796;11.978;2023-06-14T00:19:46;96409.75;;;16.53;26.33
25350;BME280;13302;48.796;11.978;2023-06-14T00:22:33;96405.38;;;16.52;26.32
25350;BME280;13302;48.796;11.978;2023-06-14T00:25:24;96408.16;;;16.52;26.32
25350;BME280;13302;48.796;11.978;2023-06-14T00:28:16;96408.53;;;16.51;26.24
25350;BME280;13302;48.796;11.978;2023-06-14T00:31:03;96412.53;;;16.50;26.39
25350;BME280;13302;48.796;11.978;2023-06-14T00:33:50;96416.13;;;16.50;26.58
25350;BME280;13302;48.796;11.978;2023-06-14T00:36:37;96409.75;;;16.50;26.80
25350;BME280;13302;48.796;11.978;2023-06-14T00:39:25;96408.16;;;16.49;26.69
25350;BME280;13302;48.796;11.978;2023-06-14T00:42:23;96406.97;;;16.46;26.68
25350;BME280;13302;48.796;11.978;2023-06-14T00:45:10;96407.38;;;16.45;26.84
25350;BME280;13302;48.796;11.978;2023-06-14T00:47:57;96408.94;;;16.39;27.01
25350;BME280;13302;48.796;11.978;2023-06-14T00:50:45;96411.72;;;16.35;26.74
25350;BME280;13302;48.796;11.978;2023-06-14T00:53:32;96407.75;;;16.33;26.87
25350;BME280;13302;48.796;11.978;2023-06-14T00:56:23;96407.34;;;16.31;26.96
25350;BME280;13302;48.796;11.978;2023-06-14T00:59:10;96413.72;;;16.28;26.80
25350;BME280;13302;48.796;11.978;2023-06-14T01:01:58;96412.13;;;16.23;26.71
25350;BME280;13302;48.796;11.978;2023-06-14T01:04:47;96412.53;;;16.22;26.77
25350;BME280;13302;48.796;11.978;2023-06-14T01:10:56;96408.94;;;16.18;26.88
25350;BME280;13302;48.796;11.978;2023-06-14T01:13:46;96414.13;;;16.16;26.99
25350;BME280;13302;48.796;11.978;2023-06-14T01:16:34;96401.38;;;16.15;26.78
25350;BME280;13302;48.796;11.978;2023-06-14T01:19:23;96414.94;;;16.13;27.00
25350;BME280;13302;48.796;11.978;2023-06-14T01:22:12;96406.16;;;16.07;26.99
25350;BME280;13302;48.796;11.978;2023-06-14T01:25:00;96414.13;;;16.05;26.96
25350;BME280;13302;48.796;11.978;2023-06-14T01:27:49;96403.78;;;16.02;26.87
25350;BME280;13302;48.796;11.978;2023-06-14T01:30:39;96410.16;;;15.99;26.77
25350;BME280;13302;48.796;11.978;2023-06-14T01:33:31;96404.16;;;15.97;26.98
25350;BME280;13302;48.796;11.978;2023-06-14T01:36:19;96400.19;;;15.98;27.08
25350;BME280;13302;48.796;11.978;2023-06-14T01:39:08;96404.97;;;15.97;27.33
25350;BME280;13302;48.796;11.978;2023-06-14T01:41:57;96408.94;;;15.96;26.98
25350;BME280;13302;48.796;11.978;2023-06-14T01:44:46;96407.38;;;15.92;27.20
25350;BME280;13302;48.796;11.978;2023-06-14T01:47:34;96412.53;;;15.90;26.96
25350;BME280;13302;48.796;11.978;2023-06-14T01:50:22;96415.31;;;15.86;27.26
25350;BME280;13302;48.796;11.978;2023-06-14T01:53:10;96412.91;;;15.85;27.17
25350;BME280;13302;48.796;11.978;2023-06-14T01:55:57;96411.72;;;15.86;27.29
25350;BME280;13302;48.796;11.978;2023-06-14T01:58:44;96415.31;;;15.83;27.30
25350;BME280;13302;48.796;11.978;2023-06-14T02:01:31;96400.56;;;15.82;27.15
25350;BME280;13302;48.796;11.978;2023-06-14T02:04:21;96412.53;;;15.83;27.12
25350;BME280;13302;48.796;11.978;2023-06-14T02:07:08;96420.09;;;15.82;27.36
25350;BME280;13302;48.796;11.978;2023-06-14T02:09:55;96408.13;;;15.82;27.37
25350;BME280;13302;48.796;11.978;2023-06-14T02:12:42;96410.13;;;15.81;27.43
25350;BME280;13302;48.796;11.978;2023-06-14T02:15:30;96410.53;;;15.80;27.45
25350;BME280;13302;48.796;11.978;2023-06-14T02:18:23;96408.94;;;15.79;27.39
25350;BME280;13302;48.796;11.978;2023-06-14T02:21:10;96409.31;;;15.77;27.17
25350;BME280;13302;48.796;11.978;2023-06-14T02:23:57;96413.28;;;15.76;27.43
25350;BME280;13302;48.796;11.978;2023-06-14T02:26:47;96419.28;;;15.75;27.34
25350;BME280;13302;48.796;11.978;2023-06-14T02:29:34;96413.28;;;15.73;27.10
25350;BME280;13302;48.796;11.978;2023-06-14T02:32:23;96415.69;;;15.71;27.54
25350;BME280;13302;48.796;11.978;2023-06-14T02:35:10;96406.91;;;15.69;27.16
25350;BME280;13302;48.796;11.978;2023-06-14T02:37:57;96412.88;;;15.67;27.59
25350;BME280;13302;48.796;11.978;2023-06-14T02:40:44;96416.44;;;15.64;27.71
25350;BME280;13302;48.796;11.978;2023-06-14T02:43:31;96414.06;;;15.62;27.67
25350;BME280;13302;48.796;11.978;2023-06-14T02:46:18;96415.25;;;15.61;27.49
25350;BME280;13302;48.796;11.978;2023-06-14T02:49:06;96415.25;;;15.61;27.47
25350;BME280;13302;48.796;11.978;2023-06-14T02:51:53;96419.22;;;15.57;27.80
25350;BME280;13302;48.796;11.978;2023-06-14T02:54:40;96413.63;;;15.50;27.54
25350;BME280;13302;48.796;11.978;2023-06-14T02:57:29;96413.63;;;15.43;27.55
25350;BME280;13302;48.796;11.978;2023-06-14T03:00:16;96408.81;;;15.36;27.75
25350;BME280;13302;48.796;11.978;2023-06-14T03:03:07;96409.19;;;15.31;27.84
25350;BME280;13302;48.796;11.978;2023-06-14T03:06:02;96409.16;;;15.28;27.95
25350;BME280;13302;48.796;11.978;2023-06-14T03:08:53;96410.34;;;15.27;28.07
25350;BME280;13302;48.796;11.978;2023-06-14T03:11:42;96411.56;;;15.26;27.93
25350;BME280;13302;48.796;11.978;2023-06-14T03:14:32;96422.72;;;15.26;27.96
25350;BME280;13302;48.796;11.978;2023-06-14T03:17:19;96429.84;;;15.27;28.15
25350;BME280;13302;48.796;11.978;2023-06-14T03:20:07;96430.66;;;15.27;28.09
25350;BME280;13302;48.796;11.978;2023-06-14T03:22:55;96434.66;;;15.26;27.79
25350;BME280;13302;48.796;11.978;2023-06-14T03:25:42;96428.25;;;15.22;28.09
25350;BME280;13302;48.796;11.978;2023-06-14T03:28:31;96431.44;;;15.17;27.99
25350;BME280;13302;48.796;11.978;2023-06-14T03:31:19;96436.19;;;15.13;28.03
25350;BME280;13302;48.796;11.978;2023-06-14T03:34:07;96441.31;;;15.07;28.41
25350;BME280;13302;48.796;11.978;2023-06-14T03:36:54;96442.09;;;15.04;28.20
25350;BME280;13302;48.796;11.978;2023-06-14T03:39:42;96453.59;;;14.99;28.54
25350;BME280;13302;48.796;11.978;2023-06-14T03:42:36;96440.47;;;14.96;28.39
25350;BME280;13302;48.796;11.978;2023-06-14T03:45:24;96444.03;;;14.93;28.59
25350;BME280;13302;48.796;11.978;2023-06-14T03:48:11;96445.22;;;14.92;28.45
25350;BME280;13302;48.796;11.978;2023-06-14T03:50:58;96455.09;;;14.90;28.47
25350;BME280;13302;48.796;11.978;2023-06-14T03:53:48;96453.91;;;14.91;28.86
25350;BME280;13302;48.796;11.978;2023-06-14T03:56:56;96458.28;;;14.88;28.93
25350;BME280;13302;48.796;11.978;2023-06-14T03:59:43;96459.47;;;14.87;28.64
25350;BME280;13302;48.796;11.978;2023-06-14T04:06:42;96465.03;;;14.84;28.91
25350;BME280;13302;48.796;11.978;2023-06-14T04:09:31;96469.41;;;14.85;29.07
25350;BME280;13302;48.796;11.978;2023-06-14T04:12:18;96467.44;;;14.85;29.22
25350;BME280;13302;48.796;11.978;2023-06-14T04:15:05;96470.59;;;14.87;29.32
25350;BME280;13302;48.796;11.978;2023-06-14T04:18:09;96477.38;;;14.90;29.54
25350;BME280;13302;48.796;11.978;2023-06-14T04:20:57;96471.06;;;14.93;29.68
25350;BME280;13302;48.796;11.978;2023-06-14T04:23:44;96474.25;;;14.95;29.71
25350;BME280;13302;48.796;11.978;2023-06-14T04:26:34;96476.25;;;14.98;29.83
25350;BME280;13302;48.796;11.978;2023-06-14T04:29:21;96471.91;;;15.00;29.57
25350;BME280;13302;48.796;11.978;2023-06-14T04:32:17;96473.91;;;15.03;29.62
25350;BME280;13302;48.796;11.978;2023-06-14T04:35:07;96480.69;;;15.06;30.04
25350;BME280;13302;48.796;11.978;2023-06-14T04:37:55;96482.28;;;15.10;30.29
25350;BME280;13302;48.796;11.978;2023-06-14T04:40:42;96479.94;;;15.12;30.43
25350;BME280;13302;48.796;11.978;2023-06-14T04:43:33;96488.66;;;15.14;30.33
25350;BME280;13302;48.796;11.978;2023-06-14T04:46:26;96483.91;;;15.15;30.58
25350;BME280;13302;48.796;11.978;2023-06-14T04:49:15;96487.09;;;15.13;30.98
25350;BME280;13302;48.796;11.978;2023-06-14T04:52:03;96485.50;;;15.12;30.82
25350;BME280;13302;48.796;11.978;2023-06-14T04:54:55;96482.34;;;15.14;30.77
25350;BME280;13302;48.796;11.978;2023-06-14T04:57:43;96487.91;;;15.17;31.11
25350;BME280;13302;48.796;11.978;2023-06-14T05:00:31;96482.34;;;15.21;31.15
25350;BME280;13302;48.796;11.978;2023-06-14T05:03:18;96489.94;;;15.28;31.67
25350;BME280;13302;48.796;11.978;2023-06-14T05:06:08;96495.50;;;15.31;31.68
25350;BME280;13302;48.796;11.978;2023-06-14T05:08:55;96488.38;;;15.34;32.04
25350;BME280;13302;48.796;11.978;2023-06-14T05:11:42;96489.56;;;15.36;32.12
25350;BME280;13302;48.796;11.978;2023-06-14T05:14:31;96495.56;;;15.38;32.64
25350;BME280;13302;48.796;11.978;2023-06-14T05:17:19;96499.94;;;15.39;32.07
25350;BME280;13302;48.796;11.978;2023-06-14T05:20:07;96495.16;;;15.40;32.17
25350;BME280;13302;48.796;11.978;2023-06-14T05:22:56;96490.38;;;15.40;32.30
25350;BME280;13302;48.796;11.978;2023-06-14T05:25:45;96500.72;;;15.40;32.81
25350;BME280;13302;48.796;11.978;2023-06-14T05:28:32;96502.34;;;15.41;32.67
25350;BME280;13302;48.796;11.978;2023-06-14T05:31:19;96499.16;;;15.42;32.96
25350;BME280;13302;48.796;11.978;2023-06-14T05:34:06;96507.91;;;15.44;33.24
25350;BME280;13302;48.796;11.978;2023-06-14T05:36:53;96506.75;;;15.49;33.11
25350;BME280;13302;48.796;11.978;2023-06-14T05:39:41;96509.16;;;15.54;33.19
25350;BME280;13302;48.796;11.978;2023-06-14T05:42:28;96519.94;;;15.59;32.68
25350;BME280;13302;48.796;11.978;2023-06-14T05:45:15;96518.72;;;15.63;33.02
25350;BME280;13302;48.796;11.978;2023-06-14T05:48:03;96517.19;;;15.70;32.72
25350;BME280;13302;48.796;11.978;2023-06-14T05:50:50;96517.63;;;15.75;32.94
25350;BME280;13302;48.796;11.978;2023-06-14T05:53:37;96526.78;;;15.79;32.82
25350;BME280;13302;48.796;11.978;2023-06-14T05:56:24;96525.22;;;15.85;33.01
25350;BME280;13302;48.796;11.978;2023-06-14T05:59:12;96525.22;;;15.92;32.66
25350;BME280;13302;48.796;11.978;2023-06-14T06:01:59;96520.88;;;15.98;32.67
25350;BME280;13302;48.796;11.978;2023-06-14T06:04:46;96518.50;;;16.04;32.75
25350;BME280;13302;48.796;11.978;2023-06-14T06:07:33;96520.09;;;16.08;32.98
25350;BME280;13302;48.796;11.978;2023-06-14T06:10:23;96521.69;;;16.13;32.70
25350;BME280;13302;48.796;11.978;2023-06-14T06:13:11;96520.91;;;16.20;32.85
25350;BME280;13302;48.796;11.978;2023-06-14T06:15:58;96524.09;;;16.25;32.77
25350;BME280;13302;48.796;11.978;2023-06-14T06:18:45;96521.72;;;16.31;32.29
25350;BME280;13302;48.796;11.978;2023-06-14T06:21:32;96527.72;;;16.36;32.42
25350;BME280;13302;48.796;11.978;2023-06-14T06:24:19;96526.53;;;16.41;32.13
25350;BME280;13302;48.796;11.978;2023-06-14T06:27:06;96531.31;;;16.47;31.81
25350;BME280;13302;48.796;11.978;2023-06-14T06:29:55;96534.91;;;16.55;31.45
25350;BME280;13302;48.796;11.978;2023-06-14T06:32:42;96532.91;;;16.63;31.39
25350;BME280;13302;48.796;11.978;2023-06-14T06:35:29;96529.34;;;16.69;31.14
25350;BME280;13302;48.796;11.978;2023-06-14T06:38:17;96532.50;;;16.75;31.46
25350;BME280;13302;48.796;11.978;2023-06-14T06:41:05;96538.13;;;16.82;31.24
25350;BME280;13302;48.796;11.978;2023-06-14T06:43:52;96538.09;;;16.89;31.28
25350;BME280;13302;48.796;11.978;2023-06-14T06:46:40;96549.66;;;16.94;31.20
25350;BME280;13302;48.796;11.978;2023-06-14T06:49:28;96539.69;;;17.00;30.87
25350;BME280;13302;48.796;11.978;2023-06-14T06:52:15;96550.06;;;17.07;31.21
25350;BME280;13302;48.796;11.978;2023-06-14T06:55:02;96552.03;;;17.14;31.08
25350;BME280;13302;48.796;11.978;2023-06-14T06:57:50;96550.44;;;17.20;30.70
25350;BME280;13302;48.796;11.978;2023-06-14T07:00:39;96562.00;;;17.25;30.98
25350;BME280;13302;48.796;11.978;2023-06-14T07:03:26;96551.22;;;17.31;30.78
25350;BME280;13302;48.796;11.978;2023-06-14T07:06:13;96558.41;;;17.35;30.77
25350;BME280;13302;48.796;11.978;2023-06-14T07:09:01;96560.38;;;17.38;30.28
25350;BME280;13302;48.796;11.978;2023-06-14T07:11:48;96560.38;;;17.42;30.62
25350;BME280;13302;48.796;11.978;2023-06-14T07:14:35;96572.34;;;17.46;30.40
25350;BME280;13302;48.796;11.978;2023-06-14T07:17:22;96565.53;;;17.51;30.30
25350;BME280;13302;48.796;11.978;2023-06-14T07:20:10;96572.72;;;17.55;30.41
25350;BME280;13302;48.796;11.978;2023-06-14T07:23:00;96571.91;;;17.58;30.34
25350;BME280;13302;48.796;11.978;2023-06-14T07:25:47;96577.47;;;17.62;30.25
25350;BME280;13302;48.796;11.978;2023-06-14T07:28:34;96579.50;;;17.65;30.20
25350;BME280;13302;48.796;11.978;2023-06-14T07:31:24;96581.47;;;17.68;30.18
25350;BME280;13302;48.796;11.978;2023-06-14T07:34:13;96582.63;;;17.70;30.13
25350;BME280;13302;48.796;11.978;2023-06-14T07:37:00;96587.03;;;17.75;30.03
25350;BME280;13302;48.796;11.978;2023-06-14T07:39:47;96578.25;;;17.76;29.98
25350;BME280;13302;48.796;11.978;2023-06-14T07:42:34;96580.22;;;17.79;29.83
25350;BME280;13302;48.796;11.978;2023-06-14T07:45:22;96583.78;;;17.83;30.17
25350;BME280;13302;48.796;11.978;2023-06-14T07:48:09;96594.59;;;17.88;30.08
25350;BME280;13302;48.796;11.978;2023-06-14T07:50:56;96590.97;;;17.92;30.10
25350;BME280;13302;48.796;11.978;2023-06-14T07:53:43;96590.97;;;17.95;29.86
25350;BME280;13302;48.796;11.978;2023-06-14T07:56:30;96593.34;;;18.00;29.86
25350;BME280;13302;48.796;11.978;2023-06-14T07:59:18;96586.94;;;18.03;29.77
25350;BME280;13302;48.796;11.978;2023-06-14T08:02:05;96596.09;;;18.07;29.75
25350;BME280;13302;48.796;11.978;2023-06-14T08:04:52;96597.31;;;18.10;29.57
25350;BME280;13302;48.796;11.978;2023-06-14T08:07:39;96600.88;;;18.14;29.78
25350;BME280;13302;48.796;11.978;2023-06-14T08:10:27;96598.47;;;18.16;29.39
25350;BME280;13302;48.796;11.978;2023-06-14T08:13:14;96592.03;;;18.19;29.39
25350;BME280;13302;48.796;11.978;2023-06-14T08:16:01;96606.00;;;18.22;29.40
25350;BME280;13302;48.796;11.978;2023-06-14T08:18:51;96602.41;;;18.25;29.34
25350;BME280;13302;48.796;11.978;2023-06-14T08:21:38;96605.59;;;18.27;29.35
25350;BME280;13302;48.796;11.978;2023-06-14T08:24:26;96606.38;;;18.31;29.25
25350;BME280;13302;48.796;11.978;2023-06-14T08:27:16;96606.78;;;18.33;29.45
25350;BME280;13302;48.796;11.978;2023-06-14T08:30:03;96606.75;;;18.37;29.26
25350;BME280;13302;48.796;11.978;2023-06-14T08:32:51;96605.91;;;18.40;29.50
25350;BME280;13302;48.796;11.978;2023-06-14T08:35:56;96607.88;;;18.43;29.15
25350;BME280;13302;48.796;11.978;2023-06-14T08:38:43;96606.28;;;18.46;29.12
25350;BME280;13302;48.796;11.978;2023-06-14T08:41:30;96614.28;;;18.51;29.44
25350;BME280;13302;48.796;11.978;2023-06-14T08:44:18;96617.06;;;18.54;29.08
25350;BME280;13302;48.796;11.978;2023-06-14T08:47:06;96616.25;;;18.57;29.27
25350;BME280;13302;48.796;11.978;2023-06-14T08:49:55;96615.41;;;18.60;29.22
25350;BME280;13302;48.796;11.978;2023-06-14T08:52:45;96619.00;;;18.64;28.98
25350;BME280;13302;48.796;11.978;2023-06-14T08:55:36;96616.97;;;18.68;28.91
25350;BME280;13302;48.796;11.978;2023-06-14T08:58:29;96629.72;;;18.73;29.02
25350;BME280;13302;48.796;11.978;2023-06-14T09:01:18;96621.72;;;18.75;28.97
25350;BME280;13302;48.796;11.978;2023-06-14T09:04:06;96621.72;;;18.78;28.94
25350;BME280;13302;48.796;11.978;2023-06-14T09:06:53;96618.88;;;18.82;28.74
25350;BME280;13302;48.796;11.978;2023-06-14T09:09:41;96621.28;;;18.84;28.45
25350;BME280;13302;48.796;11.978;2023-06-14T09:12:48;96620.44;;;18.87;28.44
25350;BME280;13302;48.796;11.978;2023-06-14T09:15:35;96625.22;;;18.90;28.57
25350;BME280;13302;48.796;11.978;2023-06-14T09:18:34;96618.00;;;18.92;28.78
25350;BME280;13302;48.796;11.978;2023-06-14T09:21:21;96623.59;;;18.96;28.90
25350;BME280;13302;48.796;11.978;2023-06-14T09:24:13;96627.56;;;18.98;28.86
25350;BME280;13302;48.796;11.978;2023-06-14T09:27:01;96620.72;;;19.03;28.59
25350;BME280;13302;48.796;11.978;2023-06-14T09:29:48;96626.28;;;19.06;28.72
25350;BME280;13302;48.796;11.978;2023-06-14T09:32:39;96622.66;;;19.09;28.20
25350;BME280;13302;48.796;11.978;2023-06-14T09:35:31;96622.63;;;19.13;28.13
25350;BME280;13302;48.796;11.978;2023-06-14T09:38:18;96625.78;;;19.18;28.02
25350;BME280;13302;48.796;11.978;2023-06-14T09:41:05;96628.59;;;19.22;27.98
25350;BME280;13302;48.796;11.978;2023-06-14T09:43:52;96621.38;;;19.24;28.28
25350;BME280;13302;48.796;11.978;2023-06-14T09:46:44;96627.75;;;19.29;27.92
25350;BME280;13302;48.796;11.978;2023-06-14T09:49:31;96624.09;;;19.32;27.68
25350;BME280;13302;48.796;11.978;2023-06-14T09:52:21;96633.31;;;19.32;27.55
25350;BME280;13302;48.796;11.978;2023-06-14T09:55:14;96632.50;;;19.32;27.04
25350;BME280;13302;48.796;11.978;2023-06-14T09:58:05;96632.09;;;19.33;27.15
25350;BME280;13302;48.796;11.978;2023-06-14T10:00:54;96629.25;;;19.37;27.27
25350;BME280;13302;48.796;11.978;2023-06-14T10:03:42;96629.63;;;19.39;27.12
25350;BME280;13302;48.796;11.978;2023-06-14T10:06:37;96633.19;;;19.43;26.97
25350;BME280;13302;48.796;11.978;2023-06-14T10:09:26;96629.56;;;19.46;26.94
25350;BME280;13302;48.796;11.978;2023-06-14T10:12:18;96619.53;;;19.48;26.98
25350;BME280;13302;48.796;11.978;2023-06-14T10:15:10;96619.50;;;19.52;26.75
25350;BME280;13302;48.796;11.978;2023-06-14T10:18:09;96619.09;;;19.53;26.64
25350;BME280;13302;48.796;11.978;2023-06-14T10:21:04;96627.06;;;19.55;26.53
25350;BME280;13302;48.796;11.978;2023-06-14T10:23:56;96619.84;;;19.57;26.39
25350;BME280;13302;48.796;11.978;2023-06-14T10:26:52;96624.22;;;19.58;26.44
25350;BME280;13302;48.796;11.978;2023-06-14T10:33:03;96624.22;;;19.62;26.66
25350;BME280;13302;48.796;11.978;2023-06-14T10:36:07;96620.13;;;19.66;26.69
25350;BME280;13302;48.796;11.978;2023-06-14T10:38:59;96618.47;;;19.72;26.59
25350;BME280;13302;48.796;11.978;2023-06-14T10:41:54;96617.22;;;19.77;26.26
25350;BME280;13302;48.796;11.978;2023-06-14T10:47:32;96615.56;;;19.87;26.42
25350;BME280;13302;48.796;11.978;2023-06-14T10:50:27;96605.09;;;19.91;26.53
25350;BME280;13302;48.796;11.978;2023-06-14T10:53:22;96605.41;;;19.96;26.45
25350;BME280;13302;48.796;11.978;2023-06-14T10:56:23;96602.53;;;20.00;26.51
25350;BME280;13302;48.796;11.978;2023-06-14T10:59:11;96602.47;;;20.07;26.20
25350;BME280;13302;48.796;11.978;2023-06-14T11:05:27;96603.59;;;20.13;26.18
25350;BME280;13302;48.796;11.978;2023-06-14T11:11:14;96615.09;;;20.22;25.86
25350;BME280;13302;48.796;11.978;2023-06-14T11:14:02;96605.03;;;20.25;25.84
25350;BME280;13302;48.796;11.978;2023-06-14T11:16:49;96600.59;;;20.27;25.73
25350;BME280;13302;48.796;11.978;2023-06-14T11:19:37;96604.97;;;20.28;25.61
25350;BME280;13302;48.796;11.978;2023-06-14T11:22:24;96605.38;;;20.30;25.73
25350;BME280;13302;48.796;11.978;2023-06-14T11:25:11;96603.72;;;20.33;25.56
25350;BME280;13302;48.796;11.978;2023-06-14T11:27:59;96596.50;;;20.35;25.76
25350;BME280;13302;48.796;11.978;2023-06-14T11:30:48;96592.03;;;20.38;25.77
25350;BME280;13302;48.796;11.978;2023-06-14T11:33:35;96597.22;;;20.39;25.85
25350;BME280;13302;48.796;11.978;2023-06-14T11:36:23;96601.59;;;20.44;25.71
25350;BME280;13302;48.796;11.978;2023-06-14T11:39:13;96592.72;;;20.45;25.80
25350;BME280;13302;48.796;11.978;2023-06-14T11:42:00;96588.69;;;20.50;25.58
25350;BME280;13302;48.796;11.978;2023-06-14T11:44:49;96601.09;;;20.52;25.54
25350;BME280;13302;48.796;11.978;2023-06-14T11:47:38;96601.03;;;20.56;25.44
25350;BME280;13302;48.796;11.978;2023-06-14T11:50:26;96596.16;;;20.60;25.23
25350;BME280;13302;48.796;11.978;2023-06-14T11:53:13;96584.06;;;20.63;25.23
25350;BME280;13302;48.796;11.978;2023-06-14T11:56:01;96585.22;;;20.66;24.95
25350;BME280;13302;48.796;11.978;2023-06-14T11:58:48;96583.59;;;20.68;24.82
25350;BME280;13302;48.796;11.978;2023-06-14T12:01:36;96585.97;;;20.70;24.72
25350;BME280;13302;48.796;11.978;2023-06-14T12:04:29;96580.34;;;20.70;24.98
25350;BME280;13302;48.796;11.978;2023-06-14T12:07:17;96587.50;;;20.74;24.63
25350;BME280;13302;48.796;11.978;2023-06-14T12:10:08;96584.28;;;20.76;24.60
25350;BME280;13302;48.796;11.978;2023-06-14T12:12:59;96583.06;;;20.77;24.69
25350;BME280;13302;48.796;11.978;2023-06-14T12:15:54;96588.25;;;20.78;24.73
25350;BME280;13302;48.796;11.978;2023-06-14T12:18:41;96583.00;;;20.80;24.49
25350;BME280;13302;48.796;11.978;2023-06-14T12:21:31;96578.94;;;20.81;24.57
25350;BME280;13302;48.796;11.978;2023-06-14T12:24:19;96581.75;;;20.81;24.62
25350;BME280;13302;48.796;11.978;2023-06-14T12:27:07;96578.53;;;20.83;24.88
25350;BME280;13302;48.796;11.978;2023-06-14T12:30:02;96578.94;;;20.81;24.54
25350;BME280;13302;48.796;11.978;2023-06-14T12:32:51;96574.50;;;20.84;24.61
25350;BME280;13302;48.796;11.978;2023-06-14T12:35:38;96578.13;;;20.84;24.95
25350;BME280;13302;48.796;11.978;2023-06-14T12:38:25;96579.72;;;20.85;24.94
25350;BME280;13302;48.796;11.978;2023-06-14T12:41:12;96586.50;;;20.88;24.58
25350;BME280;13302;48.796;11.978;2023-06-14T12:44:01;96584.03;;;20.90;24.60
25350;BME280;13302;48.796;11.978;2023-06-14T12:46:51;96588.44;;;20.91;24.76
25350;BME280;13302;48.796;11.978;2023-06-14T12:49:40;96577.59;;;20.93;24.57
25350;BME280;13302;48.796;11.978;2023-06-14T12:52:27;96586.38;;;20.95;24.94
25350;BME280;13302;48.796;11.978;2023-06-14T12:55:15;96585.50;;;20.98;24.54
25350;BME280;13302;48.796;11.978;2023-06-14T12:58:02;96597.13;;;21.00;24.68
25350;BME280;13302;48.796;11.978;2023-06-14T13:00:51;96599.09;;;21.03;24.64
25350;BME280;13302;48.796;11.978;2023-06-14T13:03:38;96589.03;;;21.05;24.52
25350;BME280;13302;48.796;11.978;2023-06-14T13:06:25;96584.56;;;21.08;24.20
25350;BME280;13302;48.796;11.978;2023-06-14T13:09:12;96591.34;;;21.11;24.26
25350;BME280;13302;48.796;11.978;2023-06-14T13:11:59;96592.53;;;21.13;24.26
25350;BME280;13302;48.796;11.978;2023-06-14T13:14:46;96590.06;;;21.15;23.97
25350;BME280;13302;48.796;11.978;2023-06-14T13:17:34;96589.66;;;21.17;23.95
25350;BME280;13302;48.796;11.978;2023-06-14T13:20:25;96589.25;;;21.18;23.96
25350;BME280;13302;48.796;11.978;2023-06-14T13:23:12;96580.81;;;21.18;24.06
25350;BME280;13302;48.796;11.978;2023-06-14T13:26:00;96583.16;;;21.20;24.12
25350;BME280;13302;48.796;11.978;2023-06-14T13:28:50;96583.16;;;21.20;23.82
25350;BME280;13302;48.796;11.978;2023-06-14T13:31:38;96584.75;;;21.21;23.99
25350;BME280;13302;48.796;11.978;2023-06-14T13:34:25;96582.75;;;21.21;23.88
25350;BME280;13302;48.796;11.978;2023-06-14T13:37:12;96577.06;;;21.25;24.33
25350;BME280;13302;48.796;11.978;2023-06-14T13:39:59;96571.03;;;21.26;24.01
25350;BME280;13302;48.796;11.978;2023-06-14T13:42:46;96571.38;;;21.28;23.96
25350;BME280;13302;48.796;11.978;2023-06-14T13:45:34;96579.38;;;21.30;23.59
25350;BME280;13302;48.796;11.978;2023-06-14T13:48:22;96572.53;;;21.31;23.76
25350;BME280;13302;48.796;11.978;2023-06-14T13:51:09;96583.34;;;21.32;23.74
25350;BME280;13302;48.796;11.978;2023-06-14T13:53:56;96582.13;;;21.33;23.85
25350;BME280;13302;48.796;11.978;2023-06-14T13:56:42;96576.84;;;21.35;23.56
25350;BME280;13302;48.796;11.978;2023-06-14T13:59:30;96575.66;;;21.36;23.57
25350;BME280;13302;48.796;11.978;2023-06-14T14:02:17;96571.22;;;21.35;23.34
25350;BME280;13302;48.796;11.978;2023-06-14T14:05:05;96581.28;;;21.36;23.50
25350;BME280;13302;48.796;11.978;2023-06-14T14:07:52;96582.47;;;21.35;23.54
25350;BME280;13302;48.796;11.978;2023-06-14T14:10:39;96572.84;;;21.36;23.45
25350;BME280;13302;48.796;11.978;2023-06-14T14:13:26;96574.03;;;21.35;23.52
25350;BME280;13302;48.796;11.978;2023-06-14T14:16:13;96571.22;;;21.35;23.52
25350;BME280;13302;48.796;11.978;2023-06-14T14:19:01;96571.22;;;21.35;23.48
25350;BME280;13302;48.796;11.978;2023-06-14T14:21:49;96571.63;;;21.37;23.40
25350;BME280;13302;48.796;11.978;2023-06-14T14:24:36;96564.41;;;21.36;23.24
25350;BME280;13302;48.796;11.978;2023-06-14T14:27:23;96568.81;;;21.37;23.30
25350;BME280;13302;48.796;11.978;2023-06-14T14:30:10;96563.19;;;21.37;23.30
25350;BME280;13302;48.796;11.978;2023-06-14T14:32:58;96576.03;;;21.38;23.21
25350;BME280;13302;48.796;11.978;2023-06-14T14:35:45;96568.34;;;21.39;23.13
25350;BME280;13302;48.796;11.978;2023-06-14T14:38:32;96572.84;;;21.36;23.36
25350;BME280;13302;48.796;11.978;2023-06-14T14:41:19;96574.44;;;21.37;23.26
25350;BME280;13302;48.796;11.978;2023-06-14T14:44:06;96585.28;;;21.35;23.26
25350;BME280;13302;48.796;11.978;2023-06-14T14:46:53;96582.47;;;21.35;23.36
25350;BME280;13302;48.796;11.978;2023-06-14T14:49:41;96581.69;;;21.35;23.17
25350;BME280;13302;48.796;11.978;2023-06-14T14:52:28;96580.91;;;21.34;23.41
25350;BME280;13302;48.796;11.978;2023-06-14T14:55:15;96578.88;;;21.35;23.11
25350;BME280;13302;48.796;11.978;2023-06-14T14:58:02;96583.72;;;21.34;23.24
25350;BME280;13302;48.796;11.978;2023-06-14T15:00:49;96580.13;;;21.34;22.81